sensor_id;sensor_type;location;lat;lon;timestamp;P1;durP1;ratioP1;P2;durP2;ratioP2
69511;SDS011;56709;52.036;4.644;2023-03-21T00:00:34;39.75;;;17.23;;
69511;SDS011;56709;52.036;4.644;2023-03-21T00:03:00;34.38;;;17.77;;
69511;SDS011;56709;52.036;4.644;2023-03-21T00:05:25;33.70;;;17.20;;
69511;SDS011;56709;52.036;4.644;2023-03-21T00:07:51;32.58;;;17.17;;
69511;SDS011;56709;52.036;4.644;2023-03-21T00:10:16;32.47;;;16.80;;
69511;SDS011;56709;52.036;4.644;2023-03-21T00:12:42;30.70;;;17.20;;
69511;SDS011;56709;52.036;4.644;2023-03-21T00:15:08;29.98;;;17.30;;
69511;SDS011;56709;52.036;4.644;2023-03-21T00:17:35;35.15;;;16.85;;
69511;SDS011;56709;52.036;4.644;2023-03-21T00:20:04;33.30;;;17.05;;
69511;SDS011;56709;52.036;4.644;2023-03-21T00:22:32;34.05;;;17.92;;
69511;SDS011;56709;52.036;4.644;2023-03-21T00:24:59;36.38;;;18.88;;
69511;SDS011;56709;52.036;4.644;2023-03-21T00:27:24;36.42;;;18.17;;
69511;SDS011;56709;52.036;4.644;2023-03-21T00:29:50;33.22;;;17.83;;
69511;SDS011;56709;52.036;4.644;2023-03-21T00:32:16;33.75;;;17.73;;
69511;SDS011;56709;52.036;4.644;2023-03-21T00:34:42;33.53;;;18.27;;
69511;SDS011;56709;52.036;4.644;2023-03-21T00:37:08;42.50;;;18.38;;
69511;SDS011;56709;52.036;4.644;2023-03-21T00:39:36;33.38;;;16.90;;
69511;SDS011;56709;52.036;4.644;2023-03-21T00:42:01;33.70;;;18.00;;
69511;SDS011;56709;52.036;4.644;2023-03-21T00:44:26;34.30;;;17.23;;
69511;SDS011;56709;52.036;4.644;2023-03-21T00:46:52;32.20;;;17.30;;
69511;SDS011;56709;52.036;4.644;2023-03-21T00:49:17;31.05;;;16.90;;
69511;SDS011;56709;52.036;4.644;2023-03-21T00:51:44;33.47;;;17.33;;
69511;SDS011;56709;52.036;4.644;2023-03-21T00:54:15;36.17;;;17.00;;
69511;SDS011;56709;52.036;4.644;2023-03-21T00:56:41;32.50;;;17.45;;
69511;SDS011;56709;52.036;4.644;2023-03-21T00:59:06;33.22;;;17.65;;
69511;SDS011;56709;52.036;4.644;2023-03-21T01:01:31;35.53;;;17.02;;
69511;SDS011;56709;52.036;4.644;2023-03-21T01:03:58;35.30;;;18.00;;
69511;SDS011;56709;52.036;4.644;2023-03-21T01:06:30;34.97;;;18.48;;
69511;SDS011;56709;52.036;4.644;2023-03-21T01:08:56;33.13;;;17.40;;
69511;SDS011;56709;52.036;4.644;2023-03-21T01:11:22;34.97;;;19.58;;
69511;SDS011;56709;52.036;4.644;2023-03-21T01:13:50;37.50;;;18.60;;
69511;SDS011;56709;52.036;4.644;2023-03-21T01:16:16;37.28;;;19.75;;
69511;SDS011;56709;52.036;4.644;2023-03-21T01:18:41;37.50;;;20.20;;
69511;SDS011;56709;52.036;4.644;2023-03-21T01:21:08;39.22;;;19.83;;
69511;SDS011;56709;52.036;4.644;2023-03-21T01:23:36;40.35;;;21.23;;
69511;SDS011;56709;52.036;4.644;2023-03-21T01:26:01;40.90;;;20.55;;
69511;SDS011;56709;52.036;4.644;2023-03-21T01:28:28;42.33;;;20.70;;
69511;SDS011;56709;52.036;4.644;2023-03-21T01:30:53;38.55;;;20.38;;
69511;SDS011;56709;52.036;4.644;2023-03-21T01:33:19;39.88;;;20.65;;
69511;SDS011;56709;52.036;4.644;2023-03-21T01:35:45;42.90;;;20.10;;
69511;SDS011;56709;52.036;4.644;2023-03-21T01:38:11;42.80;;;21.13;;
69511;SDS011;56709;52.036;4.644;2023-03-21T01:40:37;44.33;;;20.17;;
69511;SDS011;56709;52.036;4.644;2023-03-21T01:43:18;43.13;;;20.73;;
69511;SDS011;56709;52.036;4.644;2023-03-21T01:48:35;40.60;;;20.02;;
69511;SDS011;56709;52.036;4.644;2023-03-21T01:51:01;49.65;;;21.10;;
69511;SDS011;56709;52.036;4.644;2023-03-21T01:53:27;43.70;;;21.67;;
69511;SDS011;56709;52.036;4.644;2023-03-21T01:55:56;46.53;;;21.65;;
69511;SDS011;56709;52.036;4.644;2023-03-21T01:58:25;42.70;;;19.55;;
69511;SDS011;56709;52.036;4.644;2023-03-21T02:00:51;43.88;;;21.13;;
69511;SDS011;56709;52.036;4.644;2023-03-21T02:03:19;38.10;;;18.98;;
69511;SDS011;56709;52.036;4.644;2023-03-21T02:08:17;44.00;;;19.38;;
69511;SDS011;56709;52.036;4.644;2023-03-21T02:10:42;41.38;;;17.92;;
69511;SDS011;56709;52.036;4.644;2023-03-21T02:13:10;32.10;;;17.63;;
69511;SDS011;56709;52.036;4.644;2023-03-21T02:15:37;25.83;;;15.48;;
69511;SDS011;56709;52.036;4.644;2023-03-21T02:18:09;42.25;;;16.80;;
69511;SDS011;56709;52.036;4.644;2023-03-21T02:23:53;26.50;;;14.30;;
69511;SDS011;56709;52.036;4.644;2023-03-21T02:37:28;24.02;;;12.18;;
69511;SDS011;56709;52.036;4.644;2023-03-21T02:40:07;26.02;;;13.43;;
69511;SDS011;56709;52.036;4.644;2023-03-21T02:45:19;25.02;;;12.25;;
69511;SDS011;56709;52.036;4.644;2023-03-21T02:52:54;28.15;;;12.60;;
69511;SDS011;56709;52.036;4.644;2023-03-21T02:55:24;24.33;;;12.65;;
69511;SDS011;56709;52.036;4.644;2023-03-21T02:57:51;28.05;;;14.38;;
69511;SDS011;56709;52.036;4.644;2023-03-21T03:00:19;23.83;;;13.77;;
69511;SDS011;56709;52.036;4.644;2023-03-21T03:02:47;29.45;;;13.93;;
69511;SDS011;56709;52.036;4.644;2023-03-21T03:05:26;27.65;;;14.02;;
69511;SDS011;56709;52.036;4.644;2023-03-21T03:10:27;30.90;;;14.25;;
69511;SDS011;56709;52.036;4.644;2023-03-21T03:12:58;27.98;;;15.05;;
69511;SDS011;56709;52.036;4.644;2023-03-21T03:22:00;30.45;;;14.55;;
69511;SDS011;56709;52.036;4.644;2023-03-21T03:24:35;28.75;;;14.45;;
69511;SDS011;56709;52.036;4.644;2023-03-21T03:27:01;29.33;;;14.43;;
69511;SDS011;56709;52.036;4.644;2023-03-21T03:29:28;35.35;;;14.82;;
69511;SDS011;56709;52.036;4.644;2023-03-21T03:32:03;28.13;;;13.88;;
69511;SDS011;56709;52.036;4.644;2023-03-21T03:34:34;33.40;;;13.75;;
69511;SDS011;56709;52.036;4.644;2023-03-21T03:37:03;29.70;;;12.82;;
69511;SDS011;56709;52.036;4.644;2023-03-21T03:39:36;28.45;;;13.90;;
69511;SDS011;56709;52.036;4.644;2023-03-21T03:42:23;29.17;;;12.15;;
69511;SDS011;56709;52.036;4.644;2023-03-21T03:44:52;32.90;;;12.60;;
69511;SDS011;56709;52.036;4.644;2023-03-21T03:47:22;29.45;;;12.95;;
69511;SDS011;56709;52.036;4.644;2023-03-21T03:49:55;26.35;;;11.65;;
69511;SDS011;56709;52.036;4.644;2023-03-21T03:52:28;23.63;;;12.27;;
69511;SDS011;56709;52.036;4.644;2023-03-21T03:54:55;22.48;;;11.30;;
69511;SDS011;56709;52.036;4.644;2023-03-21T03:57:21;22.67;;;11.98;;
69511;SDS011;56709;52.036;4.644;2023-03-21T03:59:47;22.85;;;11.10;;
69511;SDS011;56709;52.036;4.644;2023-03-21T04:02:12;24.65;;;11.88;;
69511;SDS011;56709;52.036;4.644;2023-03-21T04:04:38;23.27;;;10.98;;
69511;SDS011;56709;52.036;4.644;2023-03-21T04:07:05;25.85;;;11.63;;
69511;SDS011;56709;52.036;4.644;2023-03-21T04:09:31;23.55;;;10.80;;
69511;SDS011;56709;52.036;4.644;2023-03-21T04:11:57;27.70;;;10.95;;
69511;SDS011;56709;52.036;4.644;2023-03-21T04:14:23;30.05;;;11.30;;
69511;SDS011;56709;52.036;4.644;2023-03-21T04:16:49;22.90;;;11.13;;
69511;SDS011;56709;52.036;4.644;2023-03-21T04:19:16;21.23;;;10.57;;
69511;SDS011;56709;52.036;4.644;2023-03-21T04:21:42;26.45;;;10.35;;
69511;SDS011;56709;52.036;4.644;2023-03-21T04:24:08;22.90;;;11.05;;
69511;SDS011;56709;52.036;4.644;2023-03-21T04:26:34;25.45;;;10.60;;
69511;SDS011;56709;52.036;4.644;2023-03-21T04:29:00;20.88;;;10.07;;
69511;SDS011;56709;52.036;4.644;2023-03-21T04:31:26;27.48;;;11.10;;
69511;SDS011;56709;52.036;4.644;2023-03-21T04:33:54;27.10;;;11.57;;
69511;SDS011;56709;52.036;4.644;2023-03-21T04:36:23;25.38;;;11.90;;
69511;SDS011;56709;52.036;4.644;2023-03-21T04:38:51;22.13;;;11.85;;
69511;SDS011;56709;52.036;4.644;2023-03-21T04:41:17;26.92;;;12.30;;
69511;SDS011;56709;52.036;4.644;2023-03-21T04:43:42;28.38;;;12.77;;
69511;SDS011;56709;52.036;4.644;2023-03-21T04:46:08;26.48;;;12.90;;
69511;SDS011;56709;52.036;4.644;2023-03-21T04:48:34;31.60;;;15.75;;
69511;SDS011;56709;52.036;4.644;2023-03-21T04:51:00;32.33;;;15.45;;
69511;SDS011;56709;52.036;4.644;2023-03-21T04:53:26;34.50;;;14.77;;
69511;SDS011;56709;52.036;4.644;2023-03-21T04:55:51;27.27;;;13.95;;
69511;SDS011;56709;52.036;4.644;2023-03-21T04:58:16;33.30;;;16.05;;
69511;SDS011;56709;52.036;4.644;2023-03-21T05:03:09;35.17;;;16.83;;
69511;SDS011;56709;52.036;4.644;2023-03-21T05:05:35;30.75;;;16.25;;
69511;SDS011;56709;52.036;4.644;2023-03-21T05:08:01;39.80;;;17.98;;
69511;SDS011;56709;52.036;4.644;2023-03-21T05:10:26;35.00;;;16.33;;
69511;SDS011;56709;52.036;4.644;2023-03-21T05:12:52;33.45;;;16.60;;
69511;SDS011;56709;52.036;4.644;2023-03-21T05:15:17;34.58;;;18.88;;
69511;SDS011;56709;52.036;4.644;2023-03-21T05:17:43;44.65;;;18.10;;
69511;SDS011;56709;52.036;4.644;2023-03-21T05:20:09;34.90;;;17.98;;
69511;SDS011;56709;52.036;4.644;2023-03-21T05:22:35;37.42;;;18.33;;
69511;SDS011;56709;52.036;4.644;2023-03-21T05:25:05;37.25;;;19.10;;
69511;SDS011;56709;52.036;4.644;2023-03-21T05:27:32;38.25;;;19.08;;
69511;SDS011;56709;52.036;4.644;2023-03-21T05:30:02;39.03;;;18.58;;
69511;SDS011;56709;52.036;4.644;2023-03-21T05:32:32;35.55;;;19.02;;
69511;SDS011;56709;52.036;4.644;2023-03-21T05:34:58;35.63;;;17.65;;
69511;SDS011;56709;52.036;4.644;2023-03-21T05:37:23;33.78;;;17.35;;
69511;SDS011;56709;52.036;4.644;2023-03-21T05:39:49;35.25;;;17.83;;
69511;SDS011;56709;52.036;4.644;2023-03-21T05:42:14;38.83;;;19.17;;
69511;SDS011;56709;52.036;4.644;2023-03-21T05:44:40;42.40;;;20.08;;
69511;SDS011;56709;52.036;4.644;2023-03-21T05:47:06;36.13;;;18.23;;
69511;SDS011;56709;52.036;4.644;2023-03-21T05:49:32;35.87;;;18.73;;
69511;SDS011;56709;52.036;4.644;2023-03-21T05:51:57;39.65;;;18.95;;
69511;SDS011;56709;52.036;4.644;2023-03-21T05:54:23;40.53;;;17.92;;
69511;SDS011;56709;52.036;4.644;2023-03-21T05:56:48;31.95;;;16.70;;
69511;SDS011;56709;52.036;4.644;2023-03-21T05:59:14;36.47;;;16.20;;
69511;SDS011;56709;52.036;4.644;2023-03-21T06:01:40;41.95;;;17.05;;
69511;SDS011;56709;52.036;4.644;2023-03-21T06:04:05;35.83;;;18.20;;
69511;SDS011;56709;52.036;4.644;2023-03-21T06:06:31;30.48;;;16.73;;
69511;SDS011;56709;52.036;4.644;2023-03-21T06:08:56;37.47;;;17.80;;
69511;SDS011;56709;52.036;4.644;2023-03-21T06:11:23;30.20;;;16.38;;
69511;SDS011;56709;52.036;4.644;2023-03-21T06:13:50;36.17;;;15.35;;
69511;SDS011;56709;52.036;4.644;2023-03-21T06:16:15;36.60;;;16.58;;
69511;SDS011;56709;52.036;4.644;2023-03-21T06:18:41;31.13;;;15.73;;
69511;SDS011;56709;52.036;4.644;2023-03-21T06:21:06;28.70;;;15.07;;
69511;SDS011;56709;52.036;4.644;2023-03-21T06:23:32;29.23;;;15.05;;
69511;SDS011;56709;52.036;4.644;2023-03-21T06:25:57;27.52;;;15.27;;
69511;SDS011;56709;52.036;4.644;2023-03-21T06:28:22;34.92;;;14.05;;
69511;SDS011;56709;52.036;4.644;2023-03-21T06:30:48;29.88;;;13.15;;
69511;SDS011;56709;52.036;4.644;2023-03-21T06:33:13;24.30;;;13.10;;
69511;SDS011;56709;52.036;4.644;2023-03-21T06:35:39;28.05;;;13.73;;
69511;SDS011;56709;52.036;4.644;2023-03-21T06:38:04;22.80;;;12.05;;
69511;SDS011;56709;52.036;4.644;2023-03-21T06:40:30;27.08;;;13.25;;
69511;SDS011;56709;52.036;4.644;2023-03-21T06:42:55;28.80;;;12.80;;
69511;SDS011;56709;52.036;4.644;2023-03-21T06:45:20;27.92;;;13.50;;
69511;SDS011;56709;52.036;4.644;2023-03-21T06:47:46;26.55;;;12.27;;
69511;SDS011;56709;52.036;4.644;2023-03-21T06:50:11;28.38;;;12.60;;
69511;SDS011;56709;52.036;4.644;2023-03-21T06:52:37;29.67;;;12.75;;
69511;SDS011;56709;52.036;4.644;2023-03-21T06:55:02;27.38;;;12.18;;
69511;SDS011;56709;52.036;4.644;2023-03-21T06:57:27;23.67;;;13.15;;
69511;SDS011;56709;52.036;4.644;2023-03-21T06:59:53;26.90;;;12.00;;
69511;SDS011;56709;52.036;4.644;2023-03-21T07:02:18;25.50;;;11.93;;
69511;SDS011;56709;52.036;4.644;2023-03-21T07:04:44;25.38;;;11.05;;
69511;SDS011;56709;52.036;4.644;2023-03-21T07:07:09;25.85;;;11.15;;
69511;SDS011;56709;52.036;4.644;2023-03-21T07:09:35;28.88;;;11.48;;
69511;SDS011;56709;52.036;4.644;2023-03-21T07:12:00;23.17;;;11.40;;
69511;SDS011;56709;52.036;4.644;2023-03-21T07:14:26;23.35;;;10.90;;
69511;SDS011;56709;52.036;4.644;2023-03-21T07:16:51;25.25;;;11.15;;
69511;SDS011;56709;52.036;4.644;2023-03-21T07:19:16;21.60;;;10.70;;
69511;SDS011;56709;52.036;4.644;2023-03-21T07:21:42;28.60;;;10.75;;
69511;SDS011;56709;52.036;4.644;2023-03-21T07:24:07;22.80;;;11.35;;
69511;SDS011;56709;52.036;4.644;2023-03-21T07:26:33;26.52;;;11.25;;
69511;SDS011;56709;52.036;4.644;2023-03-21T07:28:58;29.67;;;11.07;;
69511;SDS011;56709;52.036;4.644;2023-03-21T07:31:23;26.92;;;11.25;;
69511;SDS011;56709;52.036;4.644;2023-03-21T07:33:51;31.52;;;11.55;;
69511;SDS011;56709;52.036;4.644;2023-03-21T07:36:16;28.95;;;11.85;;
69511;SDS011;56709;52.036;4.644;2023-03-21T07:38:42;28.95;;;10.52;;
69511;SDS011;56709;52.036;4.644;2023-03-21T07:41:09;23.67;;;10.82;;
69511;SDS011;56709;52.036;4.644;2023-03-21T07:43:35;25.23;;;10.30;;
69511;SDS011;56709;52.036;4.644;2023-03-21T07:46:00;21.13;;;10.80;;
69511;SDS011;56709;52.036;4.644;2023-03-21T07:48:26;19.63;;;9.90;;
69511;SDS011;56709;52.036;4.644;2023-03-21T07:50:52;25.67;;;11.60;;
69511;SDS011;56709;52.036;4.644;2023-03-21T07:53:18;25.10;;;10.75;;
69511;SDS011;56709;52.036;4.644;2023-03-21T07:55:43;32.55;;;11.02;;
69511;SDS011;56709;52.036;4.644;2023-03-21T07:58:09;22.83;;;12.48;;
69511;SDS011;56709;52.036;4.644;2023-03-21T08:00:34;27.23;;;10.10;;
69511;SDS011;56709;52.036;4.644;2023-03-21T08:03:00;24.02;;;11.27;;
69511;SDS011;56709;52.036;4.644;2023-03-21T08:05:29;21.92;;;10.60;;
69511;SDS011;56709;52.036;4.644;2023-03-21T08:07:57;24.25;;;10.18;;
69511;SDS011;56709;52.036;4.644;2023-03-21T08:10:23;20.77;;;9.57;;
69511;SDS011;56709;52.036;4.644;2023-03-21T08:12:49;25.23;;;11.00;;
69511;SDS011;56709;52.036;4.644;2023-03-21T08:15:15;21.00;;;9.23;;
69511;SDS011;56709;52.036;4.644;2023-03-21T08:17:41;21.50;;;9.55;;
69511;SDS011;56709;52.036;4.644;2023-03-21T08:20:09;17.50;;;8.52;;
69511;SDS011;56709;52.036;4.644;2023-03-21T08:25:03;18.95;;;8.98;;
69511;SDS011;56709;52.036;4.644;2023-03-21T08:27:30;21.67;;;9.15;;
69511;SDS011;56709;52.036;4.644;2023-03-21T08:29:56;13.70;;;7.22;;
69511;SDS011;56709;52.036;4.644;2023-03-21T08:32:22;16.25;;;8.25;;
69511;SDS011;56709;52.036;4.644;2023-03-21T08:35:00;13.23;;;6.88;;
69511;SDS011;56709;52.036;4.644;2023-03-21T08:37:26;19.15;;;7.50;;
69511;SDS011;56709;52.036;4.644;2023-03-21T08:39:52;10.90;;;6.45;;
69511;SDS011;56709;52.036;4.644;2023-03-21T08:42:18;16.42;;;6.47;;
69511;SDS011;56709;52.036;4.644;2023-03-21T08:44:43;14.40;;;7.30;;
69511;SDS011;56709;52.036;4.644;2023-03-21T08:47:09;15.82;;;6.32;;
69511;SDS011;56709;52.036;4.644;2023-03-21T08:49:35;13.02;;;5.57;;
69511;SDS011;56709;52.036;4.644;2023-03-21T08:52:00;15.75;;;5.68;;
69511;SDS011;56709;52.036;4.644;2023-03-21T08:54:26;12.95;;;5.78;;
69511;SDS011;56709;52.036;4.644;2023-03-21T08:56:51;17.08;;;6.22;;
69511;SDS011;56709;52.036;4.644;2023-03-21T08:59:17;11.43;;;5.60;;
69511;SDS011;56709;52.036;4.644;2023-03-21T09:01:42;9.48;;;5.25;;
69511;SDS011;56709;52.036;4.644;2023-03-21T09:04:09;14.13;;;5.90;;
69511;SDS011;56709;52.036;4.644;2023-03-21T09:06:35;14.43;;;5.97;;
69511;SDS011;56709;52.036;4.644;2023-03-21T09:09:09;14.60;;;5.78;;
69511;SDS011;56709;52.036;4.644;2023-03-21T09:11:36;12.65;;;6.43;;
69511;SDS011;56709;52.036;4.644;2023-03-21T09:14:01;16.48;;;6.97;;
69511;SDS011;56709;52.036;4.644;2023-03-21T09:16:27;13.43;;;6.35;;
69511;SDS011;56709;52.036;4.644;2023-03-21T09:18:52;15.50;;;7.20;;
69511;SDS011;56709;52.036;4.644;2023-03-21T09:21:21;18.52;;;7.20;;
69511;SDS011;56709;52.036;4.644;2023-03-21T09:23:47;16.25;;;7.40;;
69511;SDS011;56709;52.036;4.644;2023-03-21T09:26:16;18.52;;;8.05;;
69511;SDS011;56709;52.036;4.644;2023-03-21T09:28:42;19.30;;;8.15;;
69511;SDS011;56709;52.036;4.644;2023-03-21T09:31:08;14.57;;;7.70;;
69511;SDS011;56709;52.036;4.644;2023-03-21T09:33:35;20.15;;;8.40;;
69511;SDS011;56709;52.036;4.644;2023-03-21T09:36:02;13.15;;;7.32;;
69511;SDS011;56709;52.036;4.644;2023-03-21T09:38:30;16.90;;;8.25;;
69511;SDS011;56709;52.036;4.644;2023-03-21T09:41:06;15.30;;;7.88;;
69511;SDS011;56709;52.036;4.644;2023-03-21T09:43:55;15.18;;;7.15;;
69511;SDS011;56709;52.036;4.644;2023-03-21T09:46:28;14.32;;;7.18;;
69511;SDS011;56709;52.036;4.644;2023-03-21T09:49:00;14.65;;;8.07;;
69511;SDS011;56709;52.036;4.644;2023-03-21T09:51:33;16.73;;;7.25;;
69511;SDS011;56709;52.036;4.644;2023-03-21T09:54:05;14.57;;;7.80;;
69511;SDS011;56709;52.036;4.644;2023-03-21T09:57:00;15.00;;;7.57;;
69511;SDS011;56709;52.036;4.644;2023-03-21T09:59:31;18.30;;;8.30;;
69511;SDS011;56709;52.036;4.644;2023-03-21T10:05:14;16.35;;;7.85;;
69511;SDS011;56709;52.036;4.644;2023-03-21T10:07:43;18.40;;;8.98;;
69511;SDS011;56709;52.036;4.644;2023-03-21T10:10:14;14.40;;;7.82;;
69511;SDS011;56709;52.036;4.644;2023-03-21T10:12:42;19.13;;;8.18;;
69511;SDS011;56709;52.036;4.644;2023-03-21T10:15:09;17.13;;;8.40;;
69511;SDS011;56709;52.036;4.644;2023-03-21T10:17:39;18.88;;;7.68;;
69511;SDS011;56709;52.036;4.644;2023-03-21T10:22:41;16.75;;;7.97;;
69511;SDS011;56709;52.036;4.644;2023-03-21T10:25:09;17.15;;;8.98;;
69511;SDS011;56709;52.036;4.644;2023-03-21T10:27:37;17.38;;;8.30;;
69511;SDS011;56709;52.036;4.644;2023-03-21T10:30:03;20.65;;;8.68;;
69511;SDS011;56709;52.036;4.644;2023-03-21T10:32:31;19.45;;;8.35;;
69511;SDS011;56709;52.036;4.644;2023-03-21T10:34:57;15.48;;;8.90;;
69511;SDS011;56709;52.036;4.644;2023-03-21T10:37:22;15.20;;;8.60;;
69511;SDS011;56709;52.036;4.644;2023-03-21T10:39:49;17.30;;;8.70;;
69511;SDS011;56709;52.036;4.644;2023-03-21T10:44:48;18.55;;;7.88;;
69511;SDS011;56709;52.036;4.644;2023-03-21T10:47:33;14.23;;;7.60;;
69511;SDS011;56709;52.036;4.644;2023-03-21T10:50:00;18.85;;;7.25;;
69511;SDS011;56709;52.036;4.644;2023-03-21T10:52:28;22.00;;;7.25;;
69511;SDS011;56709;52.036;4.644;2023-03-21T10:55:04;17.02;;;7.22;;
69511;SDS011;56709;52.036;4.644;2023-03-21T10:57:32;17.30;;;8.13;;
69511;SDS011;56709;52.036;4.644;2023-03-21T11:00:02;16.92;;;6.75;;
69511;SDS011;56709;52.036;4.644;2023-03-21T11:02:39;15.25;;;7.25;;
69511;SDS011;56709;52.036;4.644;2023-03-21T11:05:06;14.65;;;7.68;;
69511;SDS011;56709;52.036;4.644;2023-03-21T11:07:38;13.98;;;7.93;;
69511;SDS011;56709;52.036;4.644;2023-03-21T11:10:12;16.83;;;8.35;;
69511;SDS011;56709;52.036;4.644;2023-03-21T11:12:52;15.27;;;8.40;;
69511;SDS011;56709;52.036;4.644;2023-03-21T11:15:28;16.52;;;8.35;;
69511;SDS011;56709;52.036;4.644;2023-03-21T11:18:20;18.75;;;9.73;;
69511;SDS011;56709;52.036;4.644;2023-03-21T11:20:52;17.48;;;8.77;;
69511;SDS011;56709;52.036;4.644;2023-03-21T11:23:19;19.73;;;8.32;;
69511;SDS011;56709;52.036;4.644;2023-03-21T11:25:46;17.95;;;9.45;;
69511;SDS011;56709;52.036;4.644;2023-03-21T11:28:15;15.52;;;7.85;;
69511;SDS011;56709;52.036;4.644;2023-03-21T11:30:55;15.07;;;7.47;;
69511;SDS011;56709;52.036;4.644;2023-03-21T11:33:22;18.15;;;8.73;;
69511;SDS011;56709;52.036;4.644;2023-03-21T11:35:58;18.75;;;8.32;;
69511;SDS011;56709;52.036;4.644;2023-03-21T11:38:29;14.32;;;7.35;;
69511;SDS011;56709;52.036;4.644;2023-03-21T11:40:58;16.27;;;7.38;;
69511;SDS011;56709;52.036;4.644;2023-03-21T11:48:28;17.55;;;7.70;;
69511;SDS011;56709;52.036;4.644;2023-03-21T11:51:02;15.05;;;7.88;;
69511;SDS011;56709;52.036;4.644;2023-03-21T11:53:43;17.23;;;7.40;;
69511;SDS011;56709;52.036;4.644;2023-03-21T11:56:15;16.92;;;7.80;;
69511;SDS011;56709;52.036;4.644;2023-03-21T12:06:23;16.45;;;7.25;;
69511;SDS011;56709;52.036;4.644;2023-03-21T12:08:56;12.40;;;7.00;;
69511;SDS011;56709;52.036;4.644;2023-03-21T12:12:03;13.25;;;7.85;;
69511;SDS011;56709;52.036;4.644;2023-03-21T12:17:34;14.85;;;7.25;;
69511;SDS011;56709;52.036;4.644;2023-03-21T12:25:50;12.50;;;6.15;;
69511;SDS011;56709;52.036;4.644;2023-03-21T12:41:11;11.25;;;6.90;;
69511;SDS011;56709;52.036;4.644;2023-03-21T12:43:44;11.80;;;6.22;;
69511;SDS011;56709;52.036;4.644;2023-03-21T12:46:30;13.53;;;6.90;;
69511;SDS011;56709;52.036;4.644;2023-03-21T12:49:00;13.68;;;7.75;;
69511;SDS011;56709;52.036;4.644;2023-03-21T12:51:30;21.63;;;7.82;;
69511;SDS011;56709;52.036;4.644;2023-03-21T12:56:28;19.13;;;8.18;;
69511;SDS011;56709;52.036;4.644;2023-03-21T13:01:30;12.18;;;8.23;;
69511;SDS011;56709;52.036;4.644;2023-03-21T13:04:05;17.15;;;9.38;;
69511;SDS011;56709;52.036;4.644;2023-03-21T13:06:37;17.08;;;8.55;;
69511;SDS011;56709;52.036;4.644;2023-03-21T13:09:13;13.50;;;8.13;;
69511;SDS011;56709;52.036;4.644;2023-03-21T13:11:41;13.30;;;9.00;;
69511;SDS011;56709;52.036;4.644;2023-03-21T13:14:13;15.23;;;8.10;;
69511;SDS011;56709;52.036;4.644;2023-03-21T13:16:44;14.93;;;7.05;;
69511;SDS011;56709;52.036;4.644;2023-03-21T13:19:20;12.77;;;7.03;;
69511;SDS011;56709;52.036;4.644;2023-03-21T13:22:10;14.05;;;7.15;;
69511;SDS011;56709;52.036;4.644;2023-03-21T13:24:40;13.82;;;7.00;;
69511;SDS011;56709;52.036;4.644;2023-03-21T13:27:20;11.20;;;6.90;;
69511;SDS011;56709;52.036;4.644;2023-03-21T13:29:53;17.30;;;7.90;;
69511;SDS011;56709;52.036;4.644;2023-03-21T13:32:34;14.45;;;7.20;;
69511;SDS011;56709;52.036;4.644;2023-03-21T13:37:51;10.27;;;6.47;;
69511;SDS011;56709;52.036;4.644;2023-03-21T13:42:52;11.57;;;6.68;;
69511;SDS011;56709;52.036;4.644;2023-03-21T13:45:31;13.45;;;7.40;;
69511;SDS011;56709;52.036;4.644;2023-03-21T13:47:59;17.52;;;6.60;;
69511;SDS011;56709;52.036;4.644;2023-03-21T13:50:30;13.23;;;7.38;;
69511;SDS011;56709;52.036;4.644;2023-03-21T13:55:43;13.18;;;6.72;;
69511;SDS011;56709;52.036;4.644;2023-03-21T13:58:22;15.48;;;7.57;;
69511;SDS011;56709;52.036;4.644;2023-03-21T14:01:09;13.02;;;6.90;;
69511;SDS011;56709;52.036;4.644;2023-03-21T14:06:34;16.27;;;7.72;;
69511;SDS011;56709;52.036;4.644;2023-03-21T14:09:02;14.68;;;8.00;;
69511;SDS011;56709;52.036;4.644;2023-03-21T14:11:29;12.48;;;6.82;;
69511;SDS011;56709;52.036;4.644;2023-03-21T14:13:56;16.83;;;7.82;;
69511;SDS011;56709;52.036;4.644;2023-03-21T14:16:24;14.85;;;7.97;;
69511;SDS011;56709;52.036;4.644;2023-03-21T14:18:58;12.32;;;7.50;;
69511;SDS011;56709;52.036;4.644;2023-03-21T14:21:30;13.35;;;8.05;;
69511;SDS011;56709;52.036;4.644;2023-03-21T14:24:10;13.73;;;7.30;;
69511;SDS011;56709;52.036;4.644;2023-03-21T14:26:39;13.30;;;7.85;;
69511;SDS011;56709;52.036;4.644;2023-03-21T14:29:06;14.40;;;8.63;;
69511;SDS011;56709;52.036;4.644;2023-03-21T14:31:33;13.20;;;7.13;;
69511;SDS011;56709;52.036;4.644;2023-03-21T14:34:00;10.32;;;6.82;;
69511;SDS011;56709;52.036;4.644;2023-03-21T14:36:29;15.90;;;7.68;;
69511;SDS011;56709;52.036;4.644;2023-03-21T14:41:42;11.15;;;6.47;;
69511;SDS011;56709;52.036;4.644;2023-03-21T14:44:19;15.83;;;6.87;;
69511;SDS011;56709;52.036;4.644;2023-03-21T14:46:49;17.25;;;6.55;;
69511;SDS011;56709;52.036;4.644;2023-03-21T14:49:20;12.27;;;6.05;;
69511;SDS011;56709;52.036;4.644;2023-03-21T14:51:49;12.80;;;6.25;;
69511;SDS011;56709;52.036;4.644;2023-03-21T14:54:15;10.57;;;5.90;;
69511;SDS011;56709;52.036;4.644;2023-03-21T14:56:48;14.98;;;8.00;;
69511;SDS011;56709;52.036;4.644;2023-03-21T14:59:16;12.70;;;7.40;;
69511;SDS011;56709;52.036;4.644;2023-03-21T15:01:45;15.65;;;7.40;;
69511;SDS011;56709;52.036;4.644;2023-03-21T15:04:11;11.38;;;6.60;;
69511;SDS011;56709;52.036;4.644;2023-03-21T15:06:57;13.07;;;6.50;;
69511;SDS011;56709;52.036;4.644;2023-03-21T15:09:26;14.18;;;6.60;;
69511;SDS011;56709;52.036;4.644;2023-03-21T15:14:22;12.95;;;6.78;;
69511;SDS011;56709;52.036;4.644;2023-03-21T15:16:52;14.50;;;6.50;;
69511;SDS011;56709;52.036;4.644;2023-03-21T15:19:18;13.40;;;6.75;;
69511;SDS011;56709;52.036;4.644;2023-03-21T15:21:50;12.13;;;6.90;;
69511;SDS011;56709;52.036;4.644;2023-03-21T15:24:24;9.27;;;5.80;;
69511;SDS011;56709;52.036;4.644;2023-03-21T15:26:56;10.38;;;5.43;;
69511;SDS011;56709;52.036;4.644;2023-03-21T15:29:24;12.60;;;6.55;;
69511;SDS011;56709;52.036;4.644;2023-03-21T15:31:51;10.85;;;6.38;;
69511;SDS011;56709;52.036;4.644;2023-03-21T15:34:18;11.07;;;6.97;;
69511;SDS011;56709;52.036;4.644;2023-03-21T15:36:46;10.93;;;7.20;;
69511;SDS011;56709;52.036;4.644;2023-03-21T15:39:14;12.30;;;7.78;;
69511;SDS011;56709;52.036;4.644;2023-03-21T15:41:41;13.82;;;8.52;;
69511;SDS011;56709;52.036;4.644;2023-03-21T15:44:20;12.23;;;7.25;;
69511;SDS011;56709;52.036;4.644;2023-03-21T15:46:50;11.47;;;6.73;;
69511;SDS011;56709;52.036;4.644;2023-03-21T15:51:54;12.27;;;6.35;;
69511;SDS011;56709;52.036;4.644;2023-03-21T15:54:33;10.52;;;5.68;;
69511;SDS011;56709;52.036;4.644;2023-03-21T15:57:04;10.85;;;5.22;;
69511;SDS011;56709;52.036;4.644;2023-03-21T15:59:46;7.43;;;4.80;;
69511;SDS011;56709;52.036;4.644;2023-03-21T16:02:13;8.20;;;5.35;;
69511;SDS011;56709;52.036;4.644;2023-03-21T16:04:59;7.15;;;4.20;;
69511;SDS011;56709;52.036;4.644;2023-03-21T16:07:45;7.82;;;4.30;;
69511;SDS011;56709;52.036;4.644;2023-03-21T16:10:17;8.82;;;4.32;;
69511;SDS011;56709;52.036;4.644;2023-03-21T16:12:47;9.27;;;4.30;;
69511;SDS011;56709;52.036;4.644;2023-03-21T16:15:13;6.45;;;4.00;;
69511;SDS011;56709;52.036;4.644;2023-03-21T16:17:38;8.43;;;4.15;;
69511;SDS011;56709;52.036;4.644;2023-03-21T16:20:11;5.75;;;3.78;;
69511;SDS011;56709;52.036;4.644;2023-03-21T16:22:40;9.38;;;4.70;;
69511;SDS011;56709;52.036;4.644;2023-03-21T16:25:06;7.95;;;4.10;;